Time;durP1;ratioP1;P1;durP2;ratioP2;P2;SDS_P1;SDS_P2;PMS_P1;PMS_P2;Temp;Humidity;BMP_temperature;BMP_pressure;BME280_temperature;BME280_humidity;BME280_pressure;Samples;Min_cycle;Max_cycle;Signal;HPM_P1;HPM_P2
2022/08/10 00:01:29;;;;;;;2.15;1.55;;;25.80;48.50;;;;;;5017463;28;89705;-85
2022/08/10 00:03:55;;;;;;;1.20;1.10;;;25.80;48.50;;;;;;5018189;28;87300;-85
2022/08/10 00:06:21;;;;;;;2.28;1.33;;;25.80;48.80;;;;;;5016646;28;90849;-84
2022/08/10 00:08:47;;;;;;;2.05;1.52;;;25.80;48.70;;;;;;5016344;28;90519;-84
2022/08/10 00:11:12;;;;;;;1.58;1.38;;;25.80;48.70;;;;;;5017377;28;88285;-85
2022/08/10 00:13:38;;;;;;;1.60;1.35;;;25.70;48.70;;;;;;5017235;28;88624;-84
2022/08/10 00:16:04;;;;;;;1.95;1.25;;;25.80;48.80;;;;;;5021433;28;87096;-84
2022/08/10 00:18:30;;;;;;;1.55;1.40;;;25.70;48.90;;;;;;5021317;28;88177;-84
2022/08/10 00:20:56;;;;;;;1.65;1.30;;;25.70;48.90;;;;;;5019871;28;91173;-84
2022/08/10 00:23:21;;;;;;;1.38;1.20;;;25.70;49.00;;;;;;5020839;28;87258;-85
2022/08/10 00:25:47;;;;;;;2.38;1.70;;;25.70;48.80;;;;;;5019961;28;90572;-83
2022/08/10 00:28:13;;;;;;;1.17;1.08;;;25.70;48.90;;;;;;5019403;28;88670;-85
2022/08/10 00:30:39;;;;;;;1.70;1.23;;;25.70;48.90;;;;;;5036950;28;90129;-84
2022/08/10 00:33:04;;;;;;;1.65;1.50;;;25.70;49.00;;;;;;5021381;28;87281;-84
2022/08/10 00:35:30;;;;;;;1.42;1.33;;;25.70;49.10;;;;;;5018578;28;90362;-84
2022/08/10 00:37:56;;;;;;;2.17;1.25;;;25.70;49.00;;;;;;5021064;28;89279;-85
2022/08/10 00:40:21;;;;;;;2.22;1.25;;;25.70;49.10;;;;;;5020957;28;89403;-84
2022/08/10 00:42:47;;;;;;;1.55;1.27;;;25.70;49.00;;;;;;5020208;28;87346;-84
2022/08/10 00:45:12;;;;;;;1.42;1.30;;;25.70;49.00;;;;;;5020872;28;86913;-85
2022/08/10 00:47:38;;;;;;;1.90;1.45;;;25.60;49.00;;;;;;5019777;28;90422;-84
2022/08/10 00:50:06;;;;;;;1.20;1.10;;;25.70;49.10;;;;;;5020452;28;88320;-84
2022/08/10 00:52:32;;;;;;;1.30;1.20;;;25.60;49.00;;;;;;5019214;28;87436;-84
2022/08/10 00:55:01;;;;;;;1.40;1.30;;;25.60;49.00;;;;;;5020609;28;87010;-85
2022/08/10 00:57:27;;;;;;;2.60;1.55;;;25.60;49.00;;;;;;5021605;28;87247;-84
2022/08/10 00:59:53;;;;;;;1.30;1.10;;;25.60;49.10;;;;;;5019951;28;87407;-85
2022/08/10 01:02:18;;;;;;;1.50;1.30;;;25.60;49.20;;;;;;5020189;28;88376;-85
2022/08/10 01:04:44;;;;;;;1.30;1.20;;;25.60;49.10;;;;;;5019894;28;87859;-84
2022/08/10 01:07:16;;;;;;;1.67;1.40;;;25.60;49.20;;;;;;5019864;28;88704;-84
2022/08/10 01:10:38;;;;;;;1.60;1.38;;;25.60;49.20;;;;;;5019991;28;87844;-84
2022/08/10 01:13:08;;;;;;;1.52;1.30;;;25.60;49.10;;;;;;5012776;28;87225;-85
2022/08/10 01:15:48;;;;;;;1.15;1.05;;;25.60;49.20;;;;;;5020840;28;90789;-85
2022/08/10 01:18:23;;;;;;;1.20;1.10;;;25.60;49.20;;;;;;5037819;28;88513;-84
2022/08/10 01:21:22;;;;;;;2.15;1.48;;;25.60;49.90;;;;;;5037708;28;88169;-85
2022/08/10 01:24:06;;;;;;;1.45;1.30;;;25.60;49.20;;;;;;5037186;28;87280;-84
2022/08/10 01:26:47;;;;;;;1.15;1.02;;;25.60;49.10;;;;;;5037653;27;88071;-84
2022/08/10 01:29:33;;;;;;;1.38;1.20;;;25.60;49.20;;;;;;5037543;28;89746;-84
2022/08/10 01:32:04;;;;;;;1.38;1.20;;;25.60;49.40;;;;;;5037163;28;88869;-84
2022/08/10 01:34:41;;;;;;;1.33;1.20;;;25.60;49.30;;;;;;5036741;28;87233;-85
2022/08/10 01:37:13;;;;;;;1.35;1.25;;;25.60;49.20;;;;;;5037375;28;87551;-85
2022/08/10 01:39:43;;;;;;;1.67;1.30;;;25.60;49.20;;;;;;5020080;28;90358;-84
2022/08/10 01:42:15;;;;;;;1.95;1.77;;;25.60;49.30;;;;;;5037530;28;88251;-85
2022/08/10 01:44:52;;;;;;;0.90;0.90;;;25.60;49.40;;;;;;5021893;28;86969;-84
2022/08/10 01:50:17;;;;;;;1.48;1.38;;;25.50;49.40;;;;;;5019703;28;87228;-85
2022/08/10 01:52:48;;;;;;;1.33;1.20;;;25.50;49.40;;;;;;5019501;28;88396;-84
2022/08/10 01:55:15;;;;;;;1.80;1.30;;;25.50;49.40;;;;;;5019503;28;88312;-84
2022/08/10 01:57:41;;;;;;;1.40;1.30;;;25.50;49.60;;;;;;5019847;28;87481;-85
2022/08/10 02:00:09;;;;;;;2.00;1.17;;;25.50;49.40;;;;;;5018232;28;90600;-85
2022/08/10 02:02:36;;;;;;;2.33;1.40;;;25.60;49.60;;;;;;5017200;28;92222;-84
2022/08/10 02:05:04;;;;;;;1.27;1.13;;;25.50;49.30;;;;;;5018654;28;86915;-84
2022/08/10 02:07:34;;;;;;;2.22;1.20;;;25.50;49.40;;;;;;5018306;28;88221;-85
2022/08/10 02:10:03;;;;;;;1.42;1.27;;;25.50;49.50;;;;;;5018007;28;91457;-85
2022/08/10 02:12:31;;;;;;;1.50;1.38;;;25.50;49.60;;;;;;5019351;28;88364;-85
2022/08/10 02:15:07;;;;;;;1.33;1.23;;;25.50;49.50;;;;;;5019174;28;87551;-85
2022/08/10 02:17:37;;;;;;;1.45;1.20;;;25.50;49.60;;;;;;5019034;28;87249;-85
2022/08/10 02:20:17;;;;;;;2.28;1.10;;;25.50;49.60;;;;;;5018276;28;91226;-84
2022/08/10 02:22:44;;;;;;;1.63;1.10;;;25.50;49.60;;;;;;5017004;28;90122;-84
2022/08/10 02:25:12;;;;;;;1.50;1.17;;;25.50;49.60;;;;;;5019109;28;87166;-84
2022/08/10 02:27:39;;;;;;;1.35;1.15;;;25.50;49.60;;;;;;5018443;28;88305;-85
2022/08/10 02:30:06;;;;;;;1.80;1.30;;;25.40;49.50;;;;;;5018603;28;88652;-85
2022/08/10 02:32:33;;;;;;;1.27;1.10;;;25.40;49.60;;;;;;5018888;28;89570;-85
2022/08/10 02:35:01;;;;;;;1.30;1.17;;;25.40;49.50;;;;;;5019044;28;87041;-85
2022/08/10 02:37:28;;;;;;;1.73;1.17;;;25.40;49.50;;;;;;5018159;28;87498;-84
2022/08/10 02:39:53;;;;;;;1.45;1.10;;;25.50;49.60;;;;;;5018368;28;88867;-84
2022/08/10 02:42:42;;;;;;;1.35;1.25;;;25.40;49.50;;;;;;5020451;28;88822;-84
2022/08/10 02:45:18;;;;;;;0.95;0.95;;;25.40;49.50;;;;;;5019706;28;88553;-85
2022/08/10 02:47:51;;;;;;;1.23;1.10;;;25.40;49.50;;;;;;5019279;28;86941;-84
2022/08/10 02:50:35;;;;;;;1.63;1.52;;;25.40;49.60;;;;;;5018944;28;88792;-85
2022/08/10 02:53:05;;;;;;;1.60;1.30;;;25.40;49.40;;;;;;5018887;28;86920;-84
2022/08/10 02:55:33;;;;;;;0.95;0.95;;;25.40;49.50;;;;;;5019200;28;87424;-84
2022/08/10 02:58:06;;;;;;;1.37;1.20;;;25.40;49.60;;;;;;5018329;28;87447;-85
2022/08/10 03:00:35;;;;;;;1.08;0.93;;;25.40;49.50;;;;;;5018158;28;87500;-84
2022/08/10 03:03:02;;;;;;;1.27;1.17;;;25.40;49.60;;;;;;5019053;28;88332;-84
2022/08/10 03:05:28;;;;;;;1.45;1.10;;;25.40;49.50;;;;;;5018405;28;86957;-84
2022/08/10 03:08:04;;;;;;;1.10;1.00;;;25.40;49.60;;;;;;5018966;28;87351;-84
2022/08/10 03:10:35;;;;;;;1.20;1.10;;;25.40;49.70;;;;;;5017571;28;89703;-84
2022/08/10 03:13:05;;;;;;;1.23;1.13;;;25.40;49.50;;;;;;5018702;28;89347;-84
2022/08/10 03:15:33;;;;;;;1.20;1.10;;;25.40;49.50;;;;;;5018754;28;87004;-84
2022/08/10 03:18:00;;;;;;;1.17;1.00;;;25.40;49.60;;;;;;5018242;28;87447;-84
2022/08/10 03:20:30;;;;;;;1.45;1.20;;;25.40;49.50;;;;;;5017246;28;89247;-85
2022/08/10 03:22:56;;;;;;;1.30;1.20;;;25.40;49.50;;;;;;5017691;28;87568;-85
2022/08/10 03:25:25;;;;;;;1.35;0.98;;;25.40;49.50;;;;;;5018585;28;87453;-85
2022/08/10 03:27:52;;;;;;;1.27;1.10;;;25.40;49.50;;;;;;5018964;28;87437;-84
2022/08/10 03:30:18;;;;;;;2.67;1.10;;;25.30;49.40;;;;;;5017585;28;88004;-84
2022/08/10 03:32:44;;;;;;;2.08;1.27;;;25.40;49.70;;;;;;5017523;28;87036;-85
2022/08/10 03:35:11;;;;;;;1.48;1.23;;;25.40;49.60;;;;;;5017315;28;88163;-84
2022/08/10 03:37:37;;;;;;;1.10;1.00;;;25.30;49.60;;;;;;5018147;28;87315;-84
2022/08/10 03:40:05;;;;;;;0.90;0.90;;;25.40;49.70;;;;;;5018190;28;87765;-85
2022/08/10 03:42:32;;;;;;;1.48;1.38;;;25.40;49.60;;;;;;5020233;28;87282;-84
2022/08/10 03:45:01;;;;;;;1.50;1.10;;;25.30;49.50;;;;;;5016933;28;87465;-85
2022/08/10 03:47:28;;;;;;;1.30;1.20;;;25.40;49.70;;;;;;5018744;28;87663;-84
2022/08/10 03:49:57;;;;;;;1.30;1.20;;;25.30;49.50;;;;;;5020277;28;91432;-84
2022/08/10 03:52:23;;;;;;;1.30;1.17;;;25.30;49.50;;;;;;5021878;28;87650;-84
2022/08/10 03:54:52;;;;;;;1.83;1.40;;;25.30;49.50;;;;;;5021652;28;87327;-84
2022/08/10 03:57:19;;;;;;;1.20;1.08;;;25.30;49.50;;;;;;5018968;28;89703;-84
2022/08/10 03:59:45;;;;;;;1.95;1.27;;;25.30;49.70;;;;;;5020449;28;89743;-84
2022/08/10 04:02:12;;;;;;;1.17;1.08;;;25.30;50.10;;;;;;5021300;28;88407;-84
2022/08/10 04:04:38;;;;;;;1.42;1.33;;;25.30;49.20;;;;;;5020069;28;87883;-84
2022/08/10 04:07:04;;;;;;;1.00;0.90;;;25.30;49.60;;;;;;5020387;28;87421;-84
2022/08/10 04:09:32;;;;;;;1.17;0.90;;;25.30;49.70;;;;;;5020739;28;88623;-84
2022/08/10 04:11:58;;;;;;;1.10;1.00;;;25.30;49.60;;;;;;5021054;28;87294;-85
2022/08/10 04:14:23;;;;;;;1.13;1.00;;;25.30;49.70;;;;;;5021794;28;87539;-84
2022/08/10 04:16:49;;;;;;;1.10;1.00;;;25.30;49.60;;;;;;5021803;28;87849;-84
2022/08/10 04:19:17;;;;;;;1.35;1.17;;;25.30;49.70;;;;;;5021282;28;87122;-84
2022/08/10 04:21:51;;;;;;;1.10;1.00;;;25.30;49.60;;;;;;5019853;28;87992;-84
2022/08/10 04:24:22;;;;;;;1.40;1.20;;;25.20;49.50;;;;;;5020432;28;88228;-84
2022/08/10 04:26:49;;;;;;;1.45;1.08;;;25.30;49.60;;;;;;5021067;28;87229;-85
2022/08/10 04:29:14;;;;;;;1.58;1.20;;;25.30;49.50;;;;;;5019404;28;92043;-85
2022/08/10 04:31:43;;;;;;;1.02;0.93;;;25.30;49.50;;;;;;5020838;28;88285;-84
2022/08/10 04:34:10;;;;;;;1.42;1.27;;;25.30;49.60;;;;;;5021367;28;87224;-85
2022/08/10 04:36:38;;;;;;;1.20;1.10;;;25.30;49.50;;;;;;5021005;28;87568;-85
2022/08/10 04:39:04;;;;;;;1.20;1.08;;;25.30;49.60;;;;;;5020628;28;89123;-85
2022/08/10 04:41:30;;;;;;;1.77;1.35;;;25.30;49.60;;;;;;5021269;28;88928;-84
2022/08/10 04:43:55;;;;;;;1.70;1.20;;;25.20;49.60;;;;;;5022224;28;87108;-84
2022/08/10 04:46:21;;;;;;;1.23;1.10;;;25.20;49.40;;;;;;5021004;28;87560;-84
2022/08/10 04:48:46;;;;;;;0.90;0.80;;;25.20;49.50;;;;;;5019985;28;88426;-84
2022/08/10 04:51:16;;;;;;;0.95;0.90;;;25.20;49.50;;;;;;5021253;28;88753;-84
2022/08/10 04:53:42;;;;;;;1.55;1.00;;;25.30;49.60;;;;;;5021005;28;86912;-84
2022/08/10 04:56:08;;;;;;;1.42;0.93;;;25.20;49.40;;;;;;5019949;28;87341;-84
2022/08/10 04:58:34;;;;;;;1.30;1.10;;;25.20;49.40;;;;;;5018121;28;91768;-84
2022/08/10 05:01:01;;;;;;;0.88;0.88;;;25.30;49.50;;;;;;5020157;28;88210;-85
2022/08/10 05:03:26;;;;;;;1.17;0.90;;;25.30;49.50;;;;;;5020611;28;87431;-84
2022/08/10 05:05:52;;;;;;;1.17;1.00;;;25.30;49.50;;;;;;5020495;28;87187;-85
2022/08/10 05:08:17;;;;;;;1.45;1.10;;;25.30;49.40;;;;;;5020318;28;90335;-85
2022/08/10 05:10:43;;;;;;;1.10;1.00;;;25.30;49.40;;;;;;5019743;28;87738;-85
2022/08/10 05:13:08;;;;;;;1.17;0.93;;;25.30;49.20;;;;;;5019652;28;87928;-85
2022/08/10 05:15:34;;;;;;;1.13;1.00;;;25.30;49.20;;;;;;5020596;28;87292;-85
2022/08/10 05:18:00;;;;;;;1.20;0.90;;;25.30;49.40;;;;;;5020512;28;88563;-85
2022/08/10 05:20:25;;;;;;;1.20;1.10;;;25.40;49.50;;;;;;5020579;28;87805;-85
2022/08/10 05:22:51;;;;;;;1.10;1.00;;;25.40;49.40;;;;;;5020073;28;87650;-85
2022/08/10 05:25:18;;;;;;;1.45;1.25;;;25.40;49.40;;;;;;5019409;28;87599;-85
2022/08/10 05:27:45;;;;;;;1.05;0.90;;;25.40;49.40;;;;;;5019328;28;87496;-85
2022/08/10 05:30:16;;;;;;;1.00;0.90;;;25.40;49.40;;;;;;5035108;28;91221;-84
2022/08/10 05:32:42;;;;;;;2.17;1.10;;;25.40;49.20;;;;;;5019176;28;87020;-85
2022/08/10 05:35:08;;;;;;;1.00;1.00;;;25.50;50.00;;;;;;5018079;28;89623;-85
2022/08/10 05:37:34;;;;;;;0.80;0.80;;;25.50;49.30;;;;;;5019027;28;89029;-85
2022/08/10 05:40:03;;;;;;;2.35;1.35;;;25.50;49.40;;;;;;5016944;28;92933;-84
2022/08/10 05:42:29;;;;;;;2.47;1.83;;;25.50;48.70;;;;;;5034664;28;86943;-85
2022/08/10 05:44:55;;;;;;;3.25;2.30;;;25.40;48.20;;;;;;5018581;28;87440;-84
2022/08/10 05:47:21;;;;;;;5.53;2.28;;;25.40;48.50;;;;;;5016898;28;91800;-84
2022/08/10 05:49:48;;;;;;;4.43;2.75;;;25.30;48.60;;;;;;5017618;28;90740;-85
2022/08/10 05:52:15;;;;;;;4.22;2.40;;;25.20;48.60;;;;;;5018526;28;87236;-85
2022/08/10 05:54:41;;;;;;;5.15;2.35;;;25.20;48.60;;;;;;5019049;28;88592;-84
2022/08/10 05:57:07;;;;;;;3.97;2.72;;;25.20;48.80;;;;;;5018639;28;88995;-84
2022/08/10 05:59:34;;;;;;;4.45;2.53;;;25.20;48.90;;;;;;5018947;28;87372;-85
2022/08/10 06:02:03;;;;;;;6.85;2.72;;;25.10;48.90;;;;;;5018697;28;87968;-85
2022/08/10 06:04:32;;;;;;;;;;;25.10;49.30;;;;;;5019713;28;90076;-84
2022/08/10 06:06:59;;;;;;;6.30;2.80;;;25.20;49.20;;;;;;5021677;28;88144;-88
2022/08/10 06:09:26;;;;;;;4.57;2.58;;;25.20;48.90;;;;;;5036822;28;89062;-87
2022/08/10 06:11:53;;;;;;;4.43;2.38;;;25.20;48.90;;;;;;5037097;28;87300;-87
2022/08/10 06:17:06;;;;;;;7.65;2.80;;;25.10;48.80;;;;;;5037187;28;87181;-87
2022/08/10 06:19:34;;;;;;;7.45;2.90;;;25.10;48.70;;;;;;5020645;28;89653;-87
2022/08/10 06:22:01;;;;;;;5.05;2.78;;;25.10;48.80;;;;;;5037859;28;87587;-87
2022/08/10 06:24:30;;;;;;;10.15;3.03;;;25.10;48.80;;;;;;5037197;28;88430;-87
2022/08/10 06:26:56;;;;;;;8.43;2.90;;;25.10;49.00;;;;;;5034253;28;89646;-88
2022/08/10 06:29:23;;;;;;;12.40;3.47;;;25.20;48.90;;;;;;5035622;28;89767;-88
2022/08/10 06:31:52;;;;;;;7.28;3.25;;;25.20;48.70;;;;;;5036852;28;86936;-88
2022/08/10 06:34:25;;;;;;;7.82;3.38;;;25.20;48.70;;;;;;5037237;28;87677;-88
2022/08/10 06:36:53;;;;;;;7.88;3.20;;;25.10;48.90;;;;;;5008878;28;89333;-88
2022/08/10 06:39:19;;;;;;;11.65;3.67;;;25.20;48.90;;;;;;5035271;28;90254;-87
2022/08/10 06:41:48;;;;;;;8.40;3.00;;;25.20;48.90;;;;;;4995961;27;87227;-87
2022/08/10 06:44:21;;;;;;;4.07;2.83;;;25.10;48.80;;;;;;5017803;28;87485;-88
2022/08/10 06:46:49;;;;;;;7.97;3.10;;;25.20;48.80;;;;;;5019290;28;88210;-88
2022/08/10 06:49:20;;;;;;;70.88;13.77;;;25.20;48.80;;;;;;5017206;28;90058;-86
2022/08/10 06:51:48;;;;;;;55.72;13.13;;;25.30;48.80;;;;;;5018128;28;88291;-86
2022/08/10 06:54:21;;;;;;;43.47;9.57;;;25.30;48.90;;;;;;5017188;28;87744;-87
2022/08/10 06:56:50;;;;;;;37.58;7.03;;;25.40;48.90;;;;;;5018210;28;88697;-87
2022/08/10 06:59:35;;;;;;;19.63;5.35;;;25.40;48.70;;;;;;5019034;28;87340;-86
2022/08/10 07:02:05;;;;;;;20.67;4.75;;;25.40;48.40;;;;;;5017738;28;87611;-88
2022/08/10 07:04:39;;;;;;;18.60;4.43;;;25.30;48.40;;;;;;5017710;28;87587;-87
2022/08/10 07:07:06;;;;;;;15.50;4.70;;;25.30;48.60;;;;;;5018807;28;88859;-87
2022/08/10 07:09:38;;;;;;;9.80;4.25;;;25.30;48.50;;;;;;5017875;28;88305;-87
2022/08/10 07:12:06;;;;;;;14.25;3.80;;;25.30;48.50;;;;;;5016246;28;87594;-87
2022/08/10 07:14:35;;;;;;;6.47;3.40;;;25.30;48.30;;;;;;5017376;28;89756;-87
2022/08/10 07:17:01;;;;;;;8.43;3.05;;;25.30;48.40;;;;;;5017847;28;88466;-87
2022/08/10 07:19:30;;;;;;;6.65;2.92;;;25.30;48.50;;;;;;5019024;28;88735;-87
2022/08/10 07:21:56;;;;;;;8.43;2.90;;;25.30;48.40;;;;;;5033770;28;86990;-87
2022/08/10 07:24:24;;;;;;;9.80;2.75;;;25.30;49.20;;;;;;5024105;28;87442;-87
2022/08/10 07:26:54;;;;;;;7.80;2.67;;;25.30;48.30;;;;;;5023404;28;89616;-87
2022/08/10 07:29:20;;;;;;;;;;;25.30;48.30;;;;;;5023756;28;91213;-87
2022/08/10 07:31:48;;;;;;;8.05;2.83;;;25.40;48.60;;;;;;5026887;28;87220;-87
2022/08/10 07:34:18;;;;;;;6.80;2.90;;;25.40;48.50;;;;;;5025424;28;87968;-86
2022/08/10 07:36:45;;;;;;;10.38;3.28;;;25.40;48.40;;;;;;5025943;28;87354;-87
2022/08/10 07:39:12;;;;;;;7.65;2.88;;;25.40;48.30;;;;;;5023679;28;88082;-87
2022/08/10 07:41:43;;;;;;;9.30;3.13;;;25.30;48.50;;;;;;5025041;28;88457;-87
2022/08/10 07:44:11;;;;;;;16.33;2.70;;;25.40;48.40;;;;;;5024467;28;87345;-86
2022/08/10 07:46:42;;;;;;;10.10;3.00;;;25.40;48.30;;;;;;5024417;28;87137;-86
2022/08/10 07:49:12;;;;;;;7.22;2.63;;;25.40;48.30;;;;;;5022982;28;90536;-86
2022/08/10 07:51:38;;;;;;;6.38;2.88;;;25.40;48.80;;;;;;5024294;28;87421;-86
2022/08/10 07:54:06;;;;;;;5.55;2.30;;;25.40;48.70;;;;;;5024499;28;86997;-86
2022/08/10 07:56:36;;;;;;;5.45;2.55;;;25.40;48.60;;;;;;5024992;28;88223;-86
2022/08/10 07:59:16;;;;;;;11.25;2.80;;;25.40;48.60;;;;;;5024039;28;91469;-86
2022/08/10 08:01:49;;;;;;;5.15;2.55;;;25.50;48.50;;;;;;5023928;28;87717;-86
2022/08/10 08:04:18;;;;;;;8.52;2.63;;;25.50;47.80;;;;;;5024221;28;87813;-86
2022/08/10 08:06:45;;;;;;;7.93;2.63;;;25.50;47.50;;;;;;5023981;28;89196;-86
2022/08/10 08:09:11;;;;;;;7.90;2.58;;;25.50;47.30;;;;;;5025182;28;87873;-87
2022/08/10 08:11:40;;;;;;;11.15;2.92;;;25.60;47.30;;;;;;5022937;28;87035;-86
2022/08/10 08:14:07;;;;;;;6.22;2.50;;;25.70;47.00;;;;;;5025313;28;87588;-86
2022/08/10 08:16:37;;;;;;;9.68;2.40;;;25.70;47.00;;;;;;5024078;28;88616;-86
2022/08/10 08:19:03;;;;;;;6.07;2.65;;;25.70;46.60;;;;;;5024916;28;87629;-84
2022/08/10 08:21:29;;;;;;;7.57;2.60;;;25.70;46.30;;;;;;5023583;28;87438;-87
2022/08/10 08:23:56;;;;;;;10.73;2.85;;;25.80;46.70;;;;;;5025595;28;87192;-85
2022/08/10 08:26:23;;;;;;;11.35;2.83;;;25.80;46.50;;;;;;5023748;28;91761;-86
2022/08/10 08:28:50;;;;;;;12.00;2.83;;;25.80;46.50;;;;;;5021980;28;91181;-86
2022/08/10 08:31:17;;;;;;;9.18;2.97;;;25.80;46.40;;;;;;5023757;28;87894;-85
2022/08/10 08:33:44;;;;;;;4.45;2.25;;;25.80;46.30;;;;;;5039007;28;89686;-86
2022/08/10 08:36:13;;;;;;;7.72;2.50;;;25.90;45.70;;;;;;5018844;28;88316;-85
2022/08/10 08:38:40;;;;;;;13.25;2.97;;;25.90;45.50;;;;;;5019128;28;94484;-87
2022/08/10 08:41:33;;;;;;;7.97;3.35;;;25.90;45.80;;;;;;5021182;28;87487;-86
2022/08/10 08:44:22;;;;;;;9.07;3.40;;;26.00;46.40;;;;;;5018795;28;90057;-86
2022/08/10 08:47:00;;;;;;;;;;;26.00;46.00;;;;;;5021892;28;87281;-86
2022/08/10 08:49:37;;;;;;;6.97;2.78;;;26.00;46.30;;;;;;5022472;28;88021;-86
2022/08/10 08:52:20;;;;;;;8.70;2.53;;;26.10;46.00;;;;;;5021033;28;87142;-86
2022/08/10 08:55:04;;;;;;;11.05;3.13;;;26.00;46.30;;;;;;5020781;28;87030;-87
2022/08/10 08:57:52;;;;;;;7.78;3.25;;;26.00;46.40;;;;;;5018626;28;92599;-86
2022/08/10 09:00:56;;;;;;;8.25;2.45;;;26.00;46.50;;;;;;5020474;28;88268;-86
2022/08/10 09:03:47;;;;;;;7.53;2.53;;;25.90;46.60;;;;;;5020020;28;87329;-85
2022/08/10 09:06:44;;;;;;;8.13;2.67;;;25.90;46.70;;;;;;5018167;28;87862;-87
2022/08/10 09:09:47;;;;;;;10.25;3.33;;;26.00;46.90;;;;;;5019271;28;89154;-85
2022/08/10 09:12:32;;;;;;;9.70;3.33;;;25.90;47.30;;;;;;5019074;28;88279;-86
2022/08/10 09:15:04;;;;;;;12.23;2.90;;;26.00;47.30;;;;;;5019236;28;87421;-86
2022/08/10 09:17:44;;;;;;;7.72;3.25;;;26.10;47.10;;;;;;5020198;28;87631;-86
2022/08/10 09:20:21;;;;;;;9.45;3.60;;;26.10;47.30;;;;;;5020012;28;88757;-87
2022/08/10 09:22:55;;;;;;;10.40;4.43;;;26.20;48.10;;;;;;5018592;28;90471;-87
2022/08/10 09:25:31;;;;;;;11.93;4.68;;;26.20;49.60;;;;;;5020013;28;88000;-86
2022/08/10 09:28:04;;;;;;;15.57;4.40;;;26.10;49.50;;;;;;5020305;28;86887;-85
2022/08/10 09:30:52;;;;;;;15.85;5.43;;;26.10;50.00;;;;;;5020206;28;88736;-86
2022/08/10 09:33:56;;;;;;;10.33;5.10;;;26.10;50.40;;;;;;5020792;28;88363;-86
2022/08/10 09:36:42;;;;;;;10.98;5.47;;;26.10;50.60;;;;;;5017881;28;87275;-87
2022/08/10 09:39:34;;;;;;;12.80;6.38;;;26.10;51.10;;;;;;5017207;28;88034;-87
2022/08/10 09:42:24;;;;;;;12.55;5.22;;;26.10;51.90;;;;;;4998809;28;90903;-87
2022/08/10 09:44:58;;;;;;;13.25;5.30;;;26.10;50.60;;;;;;4998086;28;90016;-86
2022/08/10 09:48:01;;;;;;;11.95;4.72;;;26.10;50.00;;;;;;5015950;28;87589;-86
2022/08/10 09:50:44;;;;;;;8.77;4.38;;;26.20;50.00;;;;;;5015109;28;87362;-88
2022/08/10 09:53:15;;;;;;;9.60;4.50;;;26.20;49.80;;;;;;5016135;28;90921;-88
2022/08/10 09:56:06;;;;;;;8.20;4.53;;;26.20;49.40;;;;;;5016897;28;89013;-87
2022/08/10 09:58:59;;;;;;;14.82;5.03;;;26.20;49.20;;;;;;5017437;28;87434;-87
2022/08/10 10:01:35;;;;;;;8.05;4.60;;;26.30;49.30;;;;;;5008728;28;90201;-87
2022/08/10 10:04:42;;;;;;;8.35;4.10;;;26.30;49.10;;;;;;5016986;28;88302;-88
2022/08/10 10:07:12;;;;;;;7.70;4.13;;;26.30;49.10;;;;;;4949792;28;90095;-87
2022/08/10 10:09:47;;;;;;;6.32;3.65;;;26.40;49.10;;;;;;4958670;28;86962;-87
2022/08/10 10:12:15;;;;;;;5.65;3.42;;;26.40;49.00;;;;;;4957124;28;87179;-87
2022/08/10 10:15:19;;;;;;;10.55;4.32;;;26.40;48.70;;;;;;4956339;28;87365;-86
2022/08/10 10:18:06;;;;;;;9.10;4.03;;;26.40;48.40;;;;;;4957261;28;90399;-85
2022/08/10 10:20:43;;;;;;;6.15;3.70;;;26.40;48.50;;;;;;4958087;28;88138;-86
2022/08/10 10:23:15;;;;;;;7.40;3.45;;;26.40;48.40;;;;;;4957716;28;87448;-86
2022/08/10 10:25:53;;;;;;;8.60;3.53;;;26.40;48.50;;;;;;4955576;28;87749;-85
2022/08/10 10:28:47;;;;;;;10.35;4.05;;;26.30;48.60;;;;;;4956541;28;87402;-85
2022/08/10 10:34:07;;;;;;;9.48;3.70;;;26.20;48.80;;;;;;4955796;28;87749;-86
2022/08/10 10:36:38;;;;;;;8.05;3.67;;;26.10;49.10;;;;;;4956115;28;88627;-85
2022/08/10 10:39:05;;;;;;;12.80;4.10;;;26.00;49.20;;;;;;4956751;28;88574;-86
2022/08/10 10:41:41;;;;;;;14.77;4.57;;;26.00;49.30;;;;;;4956956;28;87265;-86
2022/08/10 10:44:20;;;;;;;10.25;3.53;;;25.90;49.50;;;;;;5005549;28;87249;-86
2022/08/10 10:47:04;;;;;;;10.43;4.20;;;25.90;49.60;;;;;;5017420;28;88999;-85
2022/08/10 10:49:48;;;;;;;7.93;3.60;;;25.90;49.50;;;;;;5018396;28;87431;-86
2022/08/10 10:52:19;;;;;;;6.13;3.72;;;25.90;49.60;;;;;;5018396;28;87450;-86
2022/08/10 10:55:13;;;;;;;6.70;3.30;;;25.90;49.70;;;;;;5018050;28;87340;-85
2022/08/10 10:57:58;;;;;;;7.07;3.42;;;25.90;49.80;;;;;;5017770;28;88342;-85
2022/08/10 11:00:28;;;;;;;7.70;3.83;;;25.90;49.80;;;;;;5018327;28;87288;-85
2022/08/10 11:03:22;;;;;;;7.05;3.45;;;25.90;49.80;;;;;;5018872;28;87009;-86
2022/08/10 11:06:01;;;;;;;13.27;4.10;;;25.90;50.00;;;;;;5018602;28;86571;-86
2022/08/10 11:08:34;;;;;;;10.05;3.38;;;25.90;50.00;;;;;;5017392;28;88755;-85
2022/08/10 11:11:06;;;;;;;14.48;4.45;;;25.90;50.10;;;;;;5016182;28;91287;-86
2022/08/10 11:13:37;;;;;;;8.35;3.47;;;25.90;50.30;;;;;;5018066;28;88350;-85
2022/08/10 11:16:18;;;;;;;7.80;3.40;;;25.90;50.20;;;;;;5018192;28;87421;-85
2022/08/10 11:19:09;;;;;;;9.80;3.78;;;25.90;50.40;;;;;;5018125;28;88212;-86
2022/08/10 11:22:02;;;;;;;6.90;3.72;;;25.90;50.10;;;;;;5018269;28;88488;-86
2022/08/10 11:24:54;;;;;;;6.00;3.42;;;25.90;50.40;;;;;;5018473;28;87389;-86
2022/08/10 11:28:06;;;;;;;10.25;3.42;;;25.90;50.30;;;;;;5014359;28;89335;-86
2022/08/10 11:30:53;;;;;;;8.13;3.90;;;25.90;50.30;;;;;;4974760;28;92053;-86
2022/08/10 11:33:51;;;;;;;7.68;3.50;;;25.90;50.50;;;;;;4975588;28;88325;-85
2022/08/10 11:36:41;;;;;;;7.95;3.95;;;25.90;50.50;;;;;;4975838;28;87103;-86
2022/08/10 11:39:11;;;;;;;4.68;3.50;;;25.90;50.80;;;;;;4975355;28;87525;-86
2022/08/10 11:41:57;;;;;;;6.80;4.05;;;25.90;50.90;;;;;;4974858;28;89811;-85
2022/08/10 11:44:55;;;;;;;7.20;3.63;;;25.90;50.60;;;;;;4975226;28;87801;-86
2022/08/10 11:47:25;;;;;;;3.65;2.85;;;25.90;50.80;;;;;;4975580;28;87637;-86
2022/08/10 11:50:14;;;;;;;7.07;4.03;;;25.90;51.00;;;;;;4975173;28;88013;-86
2022/08/10 11:52:52;;;;;;;6.50;3.65;;;25.90;51.70;;;;;;4877689;28;88369;-85
2022/08/10 11:55:19;;;;;;;5.43;3.23;;;25.90;51.10;;;;;;4877716;28;89583;-85
2022/08/10 11:57:47;;;;;;;5.70;3.05;;;25.90;51.10;;;;;;4882402;28;87393;-85
2022/08/10 12:00:13;;;;;;;5.75;3.33;;;25.90;51.20;;;;;;4897690;28;86650;-86
2022/08/10 12:03:02;;;;;;;5.70;3.00;;;25.90;51.20;;;;;;4881419;28;91473;-85
2022/08/10 12:05:35;;;;;;;4.88;3.10;;;25.90;51.20;;;;;;4898165;28;88821;-86
2022/08/10 12:08:03;;;;;;;9.23;3.95;;;25.90;50.80;;;;;;4916346;28;88412;-86
2022/08/10 12:10:30;;;;;;;4.03;2.63;;;25.90;51.10;;;;;;4937013;28;87646;-86
2022/08/10 12:13:21;;;;;;;5.70;3.10;;;25.90;51.20;;;;;;4922160;28;88703;-85
2022/08/10 12:16:13;;;;;;;6.80;2.90;;;25.90;51.20;;;;;;4939023;28;88138;-85
2022/08/10 12:19:02;;;;;;;5.88;3.47;;;25.90;51.20;;;;;;4938708;28;87403;-86
2022/08/10 12:22:03;;;;;;;7.13;3.42;;;25.90;51.50;;;;;;4938930;28;91007;-85
2022/08/10 12:24:43;;;;;;;5.70;3.10;;;25.90;51.30;;;;;;4938500;28;87887;-86
2022/08/10 12:27:37;;;;;;;5.55;3.03;;;25.90;51.10;;;;;;4939680;28;88036;-85
2022/08/10 12:30:05;;;;;;;5.35;3.38;;;25.90;51.40;;;;;;4984736;28;87080;-85
2022/08/10 12:32:39;;;;;;;5.13;3.00;;;25.90;51.40;;;;;;5017791;28;87500;-86
2022/08/10 12:35:24;;;;;;;6.30;2.88;;;26.00;51.20;;;;;;5017278;28;89198;-86
2022/08/10 12:38:04;;;;;;;6.65;3.45;;;26.00;52.20;;;;;;5016927;28;92229;-85
2022/08/10 12:40:36;;;;;;;5.45;3.30;;;26.00;51.50;;;;;;5000928;28;87265;-85
2022/08/10 12:43:25;;;;;;;5.47;3.17;;;26.00;51.50;;;;;;5017770;28;87751;-88
2022/08/10 12:45:53;;;;;;;;;;;26.00;51.80;;;;;;5018591;28;88968;-86
2022/08/10 12:48:30;;;;;;;4.65;3.28;;;26.00;52.10;;;;;;5019460;28;86887;-86
2022/08/10 12:51:19;;;;;;;9.30;3.30;;;26.10;51.80;;;;;;5018225;28;87580;-86
2022/08/10 12:53:59;;;;;;;5.97;3.10;;;26.10;52.50;;;;;;5016650;28;90431;-83
2022/08/10 12:56:35;;;;;;;5.80;2.83;;;26.00;51.90;;;;;;4999088;28;92713;-84
2022/08/10 12:59:04;;;;;;;5.63;3.42;;;26.10;51.20;;;;;;5018457;28;88650;-85
2022/08/10 13:01:32;;;;;;;7.38;3.00;;;26.20;51.20;;;;;;5026819;28;87989;-85
2022/08/10 13:04:01;;;;;;;7.27;2.93;;;26.30;51.10;;;;;;5020824;28;86919;-86
2022/08/10 13:06:29;;;;;;;8.13;3.03;;;26.30;51.20;;;;;;5020485;28;88097;-85
2022/08/10 13:09:07;;;;;;;7.40;3.35;;;26.30;51.40;;;;;;5021544;28;87655;-86
2022/08/10 13:11:38;;;;;;;8.60;3.17;;;26.40;51.50;;;;;;5035810;28;86932;-86
2022/08/10 13:14:13;;;;;;;11.40;4.53;;;26.50;51.70;;;;;;5020691;28;87450;-86
2022/08/10 13:16:41;;;;;;;23.60;7.22;;;26.50;51.80;;;;;;5021441;28;88358;-85
2022/08/10 13:19:09;;;;;;;25.05;7.05;;;26.50;52.10;;;;;;5036438;28;91229;-86
2022/08/10 13:21:36;;;;;;;21.73;6.78;;;26.50;52.30;;;;;;5020398;28;88491;-86
2022/08/10 13:24:09;;;;;;;66.35;18.33;;;26.50;52.50;;;;;;5020424;28;87312;-83